sensor_id;sensor_type;location;lat;lon;timestamp;pressure;altitude;pressure_sealevel;temperature;humidity
8294;BME280;4185;41.506;24.938;2023-03-13T00:01:30;93613.34;;;5.95;48.41
8294;BME280;4185;41.506;24.938;2023-03-13T00:03:57;93606.44;;;5.94;48.52
8294;BME280;4185;41.506;24.938;2023-03-13T00:06:26;93609.44;;;5.96;47.95
8294;BME280;4185;41.506;24.938;2023-03-13T00:08:53;93608.84;;;5.92;48.01
8294;BME280;4185;41.506;24.938;2023-03-13T00:11:20;93606.19;;;5.83;48.39
8294;BME280;4185;41.506;24.938;2023-03-13T00:13:47;93614.56;;;5.85;48.86
8294;BME280;4185;41.506;24.938;2023-03-13T00:16:15;93608.28;;;5.88;49.66
8294;BME280;4185;41.506;24.938;2023-03-13T00:18:48;93615.16;;;5.89;49.32
8294;BME280;4185;41.506;24.938;2023-03-13T00:21:16;93615.44;;;5.91;49.43
8294;BME280;4185;41.506;24.938;2023-03-13T00:23:44;93609.16;;;5.94;49.96
8294;BME280;4185;41.506;24.938;2023-03-13T00:26:12;93618.75;;;5.95;49.97
8294;BME280;4185;41.506;24.938;2023-03-13T00:28:41;93607.34;;;5.91;48.93
8294;BME280;4185;41.506;24.938;2023-03-13T00:31:09;93615.31;;;5.85;49.99
8294;BME280;4185;41.506;24.938;2023-03-13T00:33:38;93612.72;;;5.82;50.35
8294;BME280;4185;41.506;24.938;2023-03-13T00:36:09;93609.31;;;5.81;50.05
8294;BME280;4185;41.506;24.938;2023-03-13T00:38:36;93614.41;;;5.79;49.38
8294;BME280;4185;41.506;24.938;2023-03-13T00:41:04;93612.16;;;5.78;50.46
8294;BME280;4185;41.506;24.938;2023-03-13T00:43:32;93605.72;;;5.75;49.61
8294;BME280;4185;41.506;24.938;2023-03-13T00:45:59;93598.84;;;5.74;50.33
8294;BME280;4185;41.506;24.938;2023-03-13T00:48:26;93601.38;;;5.69;50.35
8294;BME280;4185;41.506;24.938;2023-03-13T00:50:53;93598.84;;;5.65;50.50
8294;BME280;4185;41.506;24.938;2023-03-13T00:53:22;93597.19;;;5.68;51.09
8294;BME280;4185;41.506;24.938;2023-03-13T00:55:53;93591.81;;;5.50;50.33
8294;BME280;4185;41.506;24.938;2023-03-13T00:58:20;93593.63;;;5.53;51.16
8294;BME280;4185;41.506;24.938;2023-03-13T01:00:47;93593.91;;;5.64;50.94
8294;BME280;4185;41.506;24.938;2023-03-13T01:03:14;93592.13;;;5.70;50.94
8294;BME280;4185;41.506;24.938;2023-03-13T01:05:41;93593.91;;;5.64;51.24
8294;BME280;4185;41.506;24.938;2023-03-13T01:08:08;93597.81;;;5.63;51.49
8294;BME280;4185;41.506;24.938;2023-03-13T01:10:36;93595.56;;;5.61;51.92
8294;BME280;4185;41.506;24.938;2023-03-13T01:13:03;93599.00;;;5.62;52.33
8294;BME280;4185;41.506;24.938;2023-03-13T01:15:33;93596.28;;;5.62;51.37
8294;BME280;4185;41.506;24.938;2023-03-13T01:18:00;93595.56;;;5.61;51.53
8294;BME280;4185;41.506;24.938;2023-03-13T01:20:28;93594.81;;;5.61;51.90
8294;BME280;4185;41.506;24.938;2023-03-13T01:22:55;93594.22;;;5.57;51.75
8294;BME280;4185;41.506;24.938;2023-03-13T01:25:21;93599.00;;;5.53;52.53
8294;BME280;4185;41.506;24.938;2023-03-13T01:27:50;93604.97;;;5.57;51.99
8294;BME280;4185;41.506;24.938;2023-03-13T01:30:16;93585.50;;;5.62;51.42
8294;BME280;4185;41.506;24.938;2023-03-13T01:32:43;93600.94;;;5.61;51.07
8294;BME280;4185;41.506;24.938;2023-03-13T01:35:10;93594.97;;;5.57;51.67
8294;BME280;4185;41.506;24.938;2023-03-13T01:37:37;93596.16;;;5.56;51.99
8294;BME280;4185;41.506;24.938;2023-03-13T01:40:04;93597.50;;;5.52;52.25
8294;BME280;4185;41.506;24.938;2023-03-13T01:42:51;93600.78;;;5.47;53.05
8294;BME280;4185;41.506;24.938;2023-03-13T01:46:02;93610.09;;;5.46;52.62
8294;BME280;4185;41.506;24.938;2023-03-13T01:48:41;93615.78;;;5.39;52.30
8294;BME280;4185;41.506;24.938;2023-03-13T01:51:12;93615.03;;;5.29;51.73
8294;BME280;4185;41.506;24.938;2023-03-13T01:53:41;93618.75;;;5.23;53.61
8294;BME280;4185;41.506;24.938;2023-03-13T01:56:13;93619.06;;;5.16;52.97
8294;BME280;4185;41.506;24.938;2023-03-13T01:58:43;93618.75;;;5.05;52.88
8294;BME280;4185;41.506;24.938;2023-03-13T02:01:11;93618.88;;;5.01;53.50
8294;BME280;4185;41.506;24.938;2023-03-13T02:03:39;93623.22;;;4.98;53.55
8294;BME280;4185;41.506;24.938;2023-03-13T02:06:07;93631.03;;;5.06;54.67
8294;BME280;4185;41.506;24.938;2023-03-13T02:08:38;93623.22;;;5.08;53.56
8294;BME280;4185;41.506;24.938;2023-03-13T02:11:12;93626.84;;;5.14;53.78
8294;BME280;4185;41.506;24.938;2023-03-13T02:13:43;93621.44;;;5.14;53.25
8294;BME280;4185;41.506;24.938;2023-03-13T02:16:10;93628.31;;;5.06;53.51
8294;BME280;4185;41.506;24.938;2023-03-13T02:18:37;93628.63;;;4.98;53.61
8294;BME280;4185;41.506;24.938;2023-03-13T02:21:12;93633.69;;;4.96;54.10
8294;BME280;4185;41.506;24.938;2023-03-13T02:23:46;93642.94;;;4.95;54.66
8294;BME280;4185;41.506;24.938;2023-03-13T02:26:18;93655.03;;;4.91;55.52
8294;BME280;4185;41.506;24.938;2023-03-13T02:28:45;93649.53;;;4.94;54.86
8294;BME280;4185;41.506;24.938;2023-03-13T02:31:13;93659.97;;;4.83;54.22
8294;BME280;4185;41.506;24.938;2023-03-13T02:33:40;93662.06;;;4.79;54.49
8294;BME280;4185;41.506;24.938;2023-03-13T02:36:08;93656.34;;;4.77;54.59
8294;BME280;4185;41.506;24.938;2023-03-13T02:38:41;93667.44;;;4.79;56.23
8294;BME280;4185;41.506;24.938;2023-03-13T02:41:10;93673.25;;;4.78;55.22
8294;BME280;4185;41.506;24.938;2023-03-13T02:43:40;93676.34;;;4.67;54.81
8294;BME280;4185;41.506;24.938;2023-03-13T02:46:09;93673.34;;;4.65;56.13
8294;BME280;4185;41.506;24.938;2023-03-13T02:48:39;93675.59;;;4.67;55.97
8294;BME280;4185;41.506;24.938;2023-03-13T02:51:12;93677.06;;;4.59;56.69
8294;BME280;4185;41.506;24.938;2023-03-13T02:53:41;93676.03;;;4.56;55.48
8294;BME280;4185;41.506;24.938;2023-03-13T02:56:10;93683.78;;;4.54;55.53
8294;BME280;4185;41.506;24.938;2023-03-13T02:58:42;93685.97;;;4.38;55.84
8294;BME280;4185;41.506;24.938;2023-03-13T03:01:09;93683.28;;;4.47;56.68
8294;BME280;4185;41.506;24.938;2023-03-13T03:03:36;93686.78;;;4.56;55.96
8294;BME280;4185;41.506;24.938;2023-03-13T03:06:05;93678.34;;;4.45;55.91
8294;BME280;4185;41.506;24.938;2023-03-13T03:08:33;93683.56;;;4.40;56.74
8294;BME280;4185;41.506;24.938;2023-03-13T03:11:00;93694.63;;;4.42;55.32
8294;BME280;4185;41.506;24.938;2023-03-13T03:13:27;93699.88;;;4.45;56.21
8294;BME280;4185;41.506;24.938;2023-03-13T03:15:55;93701.06;;;4.44;56.30
8294;BME280;4185;41.506;24.938;2023-03-13T03:18:22;93701.38;;;4.46;56.56
8294;BME280;4185;41.506;24.938;2023-03-13T03:20:48;93702.56;;;4.45;56.72
8294;BME280;4185;41.506;24.938;2023-03-13T03:23:15;93704.34;;;4.39;56.92
8294;BME280;4185;41.506;24.938;2023-03-13T03:25:42;93711.47;;;4.33;57.38
8294;BME280;4185;41.506;24.938;2023-03-13T03:28:09;93718.09;;;4.41;57.07
8294;BME280;4185;41.506;24.938;2023-03-13T03:30:35;93715.09;;;4.39;56.71
8294;BME280;4185;41.506;24.938;2023-03-13T03:33:04;93719.84;;;4.35;57.42
8294;BME280;4185;41.506;24.938;2023-03-13T03:35:30;93723.09;;;4.30;56.84
8294;BME280;4185;41.506;24.938;2023-03-13T03:37:58;93721.59;;;4.29;57.28
8294;BME280;4185;41.506;24.938;2023-03-13T03:40:25;93718.59;;;4.27;57.89
8294;BME280;4185;41.506;24.938;2023-03-13T03:42:52;93725.47;;;4.28;58.41
8294;BME280;4185;41.506;24.938;2023-03-13T03:45:19;93726.53;;;4.31;58.30
8294;BME280;4185;41.506;24.938;2023-03-13T03:47:46;93729.09;;;4.34;58.41
8294;BME280;4185;41.506;24.938;2023-03-13T03:50:14;93738.09;;;4.40;57.84
8294;BME280;4185;41.506;24.938;2023-03-13T03:52:41;93730.03;;;4.40;58.03
8294;BME280;4185;41.506;24.938;2023-03-13T03:55:08;93736.16;;;4.41;58.34
8294;BME280;4185;41.506;24.938;2023-03-13T03:57:35;93739.22;;;4.30;58.44
8294;BME280;4185;41.506;24.938;2023-03-13T04:00:02;93749.09;;;4.33;58.36
8294;BME280;4185;41.506;24.938;2023-03-13T04:02:32;93751.53;;;4.40;58.54
8294;BME280;4185;41.506;24.938;2023-03-13T04:04:58;93753.78;;;4.42;58.80
8294;BME280;4185;41.506;24.938;2023-03-13T04:07:26;93757.34;;;4.39;58.69
8294;BME280;4185;41.506;24.938;2023-03-13T04:09:53;93749.97;;;4.30;58.82
8294;BME280;4185;41.506;24.938;2023-03-13T04:12:20;93753.88;;;4.29;59.72
8294;BME280;4185;41.506;24.938;2023-03-13T04:14:47;93752.44;;;4.37;58.80
8294;BME280;4185;41.506;24.938;2023-03-13T04:17:14;93754.78;;;4.35;59.22
8294;BME280;4185;41.506;24.938;2023-03-13T04:19:40;93759.13;;;4.33;58.53
8294;BME280;4185;41.506;24.938;2023-03-13T04:22:07;93761.38;;;4.34;58.49
8294;BME280;4185;41.506;24.938;2023-03-13T04:24:35;93767.59;;;4.31;58.56
8294;BME280;4185;41.506;24.938;2023-03-13T04:27:02;93765.19;;;4.24;59.72
8294;BME280;4185;41.506;24.938;2023-03-13T04:29:31;93762.63;;;4.21;59.59
8294;BME280;4185;41.506;24.938;2023-03-13T04:31:57;93770.69;;;4.21;59.67
8294;BME280;4185;41.506;24.938;2023-03-13T04:34:24;93767.25;;;4.20;59.89
8294;BME280;4185;41.506;24.938;2023-03-13T04:36:51;93770.25;;;4.22;59.76
8294;BME280;4185;41.506;24.938;2023-03-13T04:39:18;93773.25;;;4.24;59.51
8294;BME280;4185;41.506;24.938;2023-03-13T04:41:50;93778.63;;;4.24;59.52
8294;BME280;4185;41.506;24.938;2023-03-13T04:44:17;93783.06;;;4.18;59.73
8294;BME280;4185;41.506;24.938;2023-03-13T04:46:44;93788.13;;;4.16;59.77
8294;BME280;4185;41.506;24.938;2023-03-13T04:49:11;93796.75;;;4.11;60.46
8294;BME280;4185;41.506;24.938;2023-03-13T04:51:38;93789.75;;;4.14;59.70
8294;BME280;4185;41.506;24.938;2023-03-13T04:54:05;93790.88;;;4.25;59.90
8294;BME280;4185;41.506;24.938;2023-03-13T04:56:32;93786.44;;;4.31;59.67
8294;BME280;4185;41.506;24.938;2023-03-13T04:59:00;93786.75;;;4.33;60.22
8294;BME280;4185;41.506;24.938;2023-03-13T05:01:27;93801.41;;;4.32;60.54
8294;BME280;4185;41.506;24.938;2023-03-13T05:03:54;93800.63;;;4.32;60.04
8294;BME280;4185;41.506;24.938;2023-03-13T05:06:21;93804.97;;;4.29;60.39
8294;BME280;4185;41.506;24.938;2023-03-13T05:08:47;93811.50;;;4.28;61.06
8294;BME280;4185;41.506;24.938;2023-03-13T05:11:14;93809.78;;;4.34;60.35
8294;BME280;4185;41.506;24.938;2023-03-13T05:13:41;93810.38;;;4.38;60.20
8294;BME280;4185;41.506;24.938;2023-03-13T05:16:09;93817.88;;;4.43;59.78
8294;BME280;4185;41.506;24.938;2023-03-13T05:18:36;93807.75;;;4.47;59.43
8294;BME280;4185;41.506;24.938;2023-03-13T05:21:04;93807.75;;;4.47;59.55
8294;BME280;4185;41.506;24.938;2023-03-13T05:23:30;93813.78;;;4.51;58.31
8294;BME280;4185;41.506;24.938;2023-03-13T05:25:58;93816.19;;;4.58;57.34
8294;BME280;4185;41.506;24.938;2023-03-13T05:28:25;93813.38;;;4.62;57.91
8294;BME280;4185;41.506;24.938;2023-03-13T05:30:52;93814.88;;;4.63;58.51
8294;BME280;4185;41.506;24.938;2023-03-13T05:33:20;93822.84;;;4.66;59.13
8294;BME280;4185;41.506;24.938;2023-03-13T05:35:47;93826.13;;;4.70;58.26
8294;BME280;4185;41.506;24.938;2023-03-13T05:38:14;93833.63;;;4.75;57.37
8294;BME280;4185;41.506;24.938;2023-03-13T05:40:41;93837.72;;;4.80;56.66
8294;BME280;4185;41.506;24.938;2023-03-13T05:43:08;93837.88;;;4.85;55.06
8294;BME280;4185;41.506;24.938;2023-03-13T05:45:34;93837.28;;;4.81;54.77
8294;BME280;4185;41.506;24.938;2023-03-13T05:48:01;93845.03;;;4.79;55.11
8294;BME280;4185;41.506;24.938;2023-03-13T05:50:29;93838.56;;;4.77;53.90
8294;BME280;4185;41.506;24.938;2023-03-13T05:52:56;93845.03;;;4.79;53.88
8294;BME280;4185;41.506;24.938;2023-03-13T05:55:23;93849.53;;;4.82;54.15
8294;BME280;4185;41.506;24.938;2023-03-13T05:57:50;93844.91;;;4.83;53.64
8294;BME280;4185;41.506;24.938;2023-03-13T06:00:17;93856.56;;;4.80;53.36
8294;BME280;4185;41.506;24.938;2023-03-13T06:02:45;93854.91;;;4.82;52.45
8294;BME280;4185;41.506;24.938;2023-03-13T06:05:12;93857.97;;;4.93;52.54
8294;BME280;4185;41.506;24.938;2023-03-13T06:07:40;93863.25;;;5.06;51.94
8294;BME280;4185;41.506;24.938;2023-03-13T06:10:08;93861.81;;;5.14;52.09
8294;BME280;4185;41.506;24.938;2023-03-13T06:12:35;93861.16;;;5.32;52.54
8294;BME280;4185;41.506;24.938;2023-03-13T06:15:02;93856.69;;;5.38;51.36
8294;BME280;4185;41.506;24.938;2023-03-13T06:17:31;93856.69;;;5.38;51.20
8294;BME280;4185;41.506;24.938;2023-03-13T06:19:58;93862.38;;;5.40;51.05
8294;BME280;4185;41.506;24.938;2023-03-13T06:22:25;93864.63;;;5.41;49.87
8294;BME280;4185;41.506;24.938;2023-03-13T06:24:53;93862.09;;;5.38;49.96
8294;BME280;4185;41.506;24.938;2023-03-13T06:27:20;93859.84;;;5.45;50.00
8294;BME280;4185;41.506;24.938;2023-03-13T06:29:47;93858.38;;;5.53;49.62
8294;BME280;4185;41.506;24.938;2023-03-13T06:32:14;93860.94;;;5.57;48.67
8294;BME280;4185;41.506;24.938;2023-03-13T06:34:40;93871.13;;;5.62;48.25
8294;BME280;4185;41.506;24.938;2023-03-13T06:37:07;93865.16;;;5.67;48.86
8294;BME280;4185;41.506;24.938;2023-03-13T06:39:34;93877.31;;;5.80;48.78
8294;BME280;4185;41.506;24.938;2023-03-13T06:42:03;93867.19;;;5.84;47.92
8294;BME280;4185;41.506;24.938;2023-03-13T06:44:30;93881.38;;;5.76;48.26
8294;BME280;4185;41.506;24.938;2023-03-13T06:46:56;93869.13;;;5.84;48.49
8294;BME280;4185;41.506;24.938;2023-03-13T06:49:23;93871.53;;;5.91;46.89
8294;BME280;4185;41.506;24.938;2023-03-13T06:51:50;93871.53;;;5.91;47.01
8294;BME280;4185;41.506;24.938;2023-03-13T06:54:17;93873.22;;;6.06;47.33
8294;BME280;4185;41.506;24.938;2023-03-13T06:56:44;93877.16;;;6.24;47.98
8294;BME280;4185;41.506;24.938;2023-03-13T06:59:12;93881.19;;;6.37;47.23
8294;BME280;4185;41.506;24.938;2023-03-13T07:01:38;93874.59;;;6.47;46.98
8294;BME280;4185;41.506;24.938;2023-03-13T07:04:05;93875.19;;;6.60;46.68
8294;BME280;4185;41.506;24.938;2023-03-13T07:06:32;93886.00;;;6.60;45.82
8294;BME280;4185;41.506;24.938;2023-03-13T07:08:59;93879.09;;;6.50;45.76
8294;BME280;4185;41.506;24.938;2023-03-13T07:11:25;93875.06;;;6.46;45.15
8294;BME280;4185;41.506;24.938;2023-03-13T07:13:54;93877.16;;;6.51;45.49
8294;BME280;4185;41.506;24.938;2023-03-13T07:16:23;93869.66;;;6.64;45.66
8294;BME280;4185;41.506;24.938;2023-03-13T07:18:49;93880.16;;;6.62;45.16
8294;BME280;4185;41.506;24.938;2023-03-13T07:21:16;93893.34;;;6.78;45.56
8294;BME280;4185;41.506;24.938;2023-03-13T07:23:43;93887.78;;;6.63;45.11
8294;BME280;4185;41.506;24.938;2023-03-13T07:26:12;93885.69;;;6.58;44.77
8294;BME280;4185;41.506;24.938;2023-03-13T07:28:39;93886.31;;;6.71;45.63
8294;BME280;4185;41.506;24.938;2023-03-13T07:31:09;93883.47;;;6.75;45.08
8294;BME280;4185;41.506;24.938;2023-03-13T07:33:38;93876.25;;;6.72;44.93
8294;BME280;4185;41.506;24.938;2023-03-13T07:36:05;93881.50;;;6.93;44.91
8294;BME280;4185;41.506;24.938;2023-03-13T07:38:33;93887.16;;;7.04;44.15
8294;BME280;4185;41.506;24.938;2023-03-13T07:40:59;93882.53;;;6.78;44.19
8294;BME280;4185;41.506;24.938;2023-03-13T07:43:26;93879.09;;;6.86;43.93
8294;BME280;4185;41.506;24.938;2023-03-13T07:45:55;93877.56;;;6.85;44.28
8294;BME280;4185;41.506;24.938;2023-03-13T07:48:22;93878.44;;;7.00;44.65
8294;BME280;4185;41.506;24.938;2023-03-13T07:50:53;93882.00;;;7.15;43.12
8294;BME280;4185;41.506;24.938;2023-03-13T07:53:20;93877.81;;;7.14;43.24
8294;BME280;4185;41.506;24.938;2023-03-13T07:55:54;93876.59;;;7.24;43.56
8294;BME280;4185;41.506;24.938;2023-03-13T07:58:21;93873.13;;;7.24;43.50
8294;BME280;4185;41.506;24.938;2023-03-13T08:00:48;93874.50;;;7.28;43.21
8294;BME280;4185;41.506;24.938;2023-03-13T08:03:15;93874.44;;;7.37;43.15
8294;BME280;4185;41.506;24.938;2023-03-13T08:05:42;93868.03;;;7.26;42.82
8294;BME280;4185;41.506;24.938;2023-03-13T08:08:10;93867.13;;;7.29;43.13
8294;BME280;4185;41.506;24.938;2023-03-13T08:10:38;93865.72;;;7.42;43.40
8294;BME280;4185;41.506;24.938;2023-03-13T08:13:05;93876.22;;;7.50;42.81
8294;BME280;4185;41.506;24.938;2023-03-13T08:15:32;93860.72;;;7.59;42.42
8294;BME280;4185;41.506;24.938;2023-03-13T08:17:59;93860.88;;;7.56;42.45
8294;BME280;4185;41.506;24.938;2023-03-13T08:20:26;93874.34;;;7.65;41.61
8294;BME280;4185;41.506;24.938;2023-03-13T08:22:57;93878.88;;;7.59;41.02
8294;BME280;4185;41.506;24.938;2023-03-13T08:25:25;93870.63;;;7.62;40.71
8294;BME280;4185;41.506;24.938;2023-03-13T08:27:52;93877.66;;;7.69;40.87
8294;BME280;4185;41.506;24.938;2023-03-13T08:30:19;93862.03;;;7.73;40.05
8294;BME280;4185;41.506;24.938;2023-03-13T08:32:45;93863.72;;;7.85;39.83
8294;BME280;4185;41.506;24.938;2023-03-13T08:35:13;93855.19;;;7.86;38.03
8294;BME280;4185;41.506;24.938;2023-03-13T08:37:39;93852.06;;;7.79;33.34
8294;BME280;4185;41.506;24.938;2023-03-13T08:40:07;93883.22;;;7.98;32.71
8294;BME280;4185;41.506;24.938;2023-03-13T08:42:37;93877.38;;;7.90;28.83
8294;BME280;4185;41.506;24.938;2023-03-13T08:45:06;93871.00;;;7.79;30.71
8294;BME280;4185;41.506;24.938;2023-03-13T08:47:33;93866.00;;;7.54;30.24
8294;BME280;4185;41.506;24.938;2023-03-13T08:50:00;93858.13;;;7.65;30.85
8294;BME280;4185;41.506;24.938;2023-03-13T08:52:27;93870.31;;;7.60;31.38
8294;BME280;4185;41.506;24.938;2023-03-13T08:54:54;93868.69;;;7.54;31.93
8294;BME280;4185;41.506;24.938;2023-03-13T08:57:21;93870.63;;;7.62;31.62
8294;BME280;4185;41.506;24.938;2023-03-13T08:59:49;93869.09;;;7.61;31.90
8294;BME280;4185;41.506;24.938;2023-03-13T09:02:16;93886.22;;;7.67;32.73
8294;BME280;4185;41.506;24.938;2023-03-13T09:04:46;93881.84;;;7.70;33.05
8294;BME280;4185;41.506;24.938;2023-03-13T09:07:14;93878.97;;;7.73;32.51
8294;BME280;4185;41.506;24.938;2023-03-13T09:09:41;93868.06;;;7.68;32.15
8294;BME280;4185;41.506;24.938;2023-03-13T09:12:09;93878.81;;;7.77;31.94
8294;BME280;4185;41.506;24.938;2023-03-13T09:14:35;93859.41;;;7.78;31.20
8294;BME280;4185;41.506;24.938;2023-03-13T09:17:04;93880.31;;;7.78;31.58
8294;BME280;4185;41.506;24.938;2023-03-13T09:19:31;93884.81;;;7.81;32.72
8294;BME280;4185;41.506;24.938;2023-03-13T09:21:57;93881.81;;;7.79;32.43
8294;BME280;4185;41.506;24.938;2023-03-13T09:24:24;93879.00;;;7.97;32.79
8294;BME280;4185;41.506;24.938;2023-03-13T09:26:51;93873.03;;;8.16;33.19
8294;BME280;4185;41.506;24.938;2023-03-13T09:29:18;93862.47;;;8.27;33.04
8294;BME280;4185;41.506;24.938;2023-03-13T09:31:45;93865.00;;;8.31;32.52
8294;BME280;4185;41.506;24.938;2023-03-13T09:34:13;93857.75;;;8.37;32.71
8294;BME280;4185;41.506;24.938;2023-03-13T09:36:40;93861.94;;;8.38;31.71
8294;BME280;4185;41.506;24.938;2023-03-13T09:39:07;93864.84;;;8.49;31.88
8294;BME280;4185;41.506;24.938;2023-03-13T09:41:38;93868.97;;;8.44;30.67
8294;BME280;4185;41.506;24.938;2023-03-13T09:44:13;93843.66;;;8.47;31.02
8294;BME280;4185;41.506;24.938;2023-03-13T09:46:47;93863.78;;;8.55;31.06
8294;BME280;4185;41.506;24.938;2023-03-13T09:49:26;93854.84;;;8.64;31.90
8294;BME280;4185;41.506;24.938;2023-03-13T09:51:58;93858.22;;;8.88;31.37
8294;BME280;4185;41.506;24.938;2023-03-13T09:54:32;93864.78;;;8.96;30.04
8294;BME280;4185;41.506;24.938;2023-03-13T09:57:05;93858.31;;;8.94;29.66
8294;BME280;4185;41.506;24.938;2023-03-13T09:59:43;93851.03;;;8.85;31.00
8294;BME280;4185;41.506;24.938;2023-03-13T10:02:21;93852.78;;;8.88;30.47
8294;BME280;4185;41.506;24.938;2023-03-13T10:04:56;93842.81;;;8.94;30.64
8294;BME280;4185;41.506;24.938;2023-03-13T10:07:25;93840.00;;;9.03;30.18
8294;BME280;4185;41.506;24.938;2023-03-13T10:09:52;93833.75;;;8.97;30.02
8294;BME280;4185;41.506;24.938;2023-03-13T10:12:20;93841.69;;;9.01;29.65
8294;BME280;4185;41.506;24.938;2023-03-13T10:14:56;93831.81;;;8.98;29.69
8294;BME280;4185;41.506;24.938;2023-03-13T10:17:31;93836.28;;;9.15;28.50
8294;BME280;4185;41.506;24.938;2023-03-13T10:20:02;93831.16;;;9.32;29.31
8294;BME280;4185;41.506;24.938;2023-03-13T10:22:35;93836.91;;;9.39;29.34
8294;BME280;4185;41.506;24.938;2023-03-13T10:25:05;93825.41;;;9.44;29.54
8294;BME280;4185;41.506;24.938;2023-03-13T10:27:42;93830.44;;;9.51;29.65
8294;BME280;4185;41.506;24.938;2023-03-13T10:30:19;93833.22;;;9.71;31.04
8294;BME280;4185;41.506;24.938;2023-03-13T10:32:48;93835.69;;;9.89;30.00
8294;BME280;4185;41.506;24.938;2023-03-13T10:35:22;93832.28;;;9.95;30.47
8294;BME280;4185;41.506;24.938;2023-03-13T10:37:49;93826.47;;;10.02;30.22
8294;BME280;4185;41.506;24.938;2023-03-13T10:40:22;93829.00;;;10.05;30.47
8294;BME280;4185;41.506;24.938;2023-03-13T10:42:51;93813.09;;;10.13;30.49
8294;BME280;4185;41.506;24.938;2023-03-13T10:45:19;93818.59;;;10.04;29.70
8294;BME280;4185;41.506;24.938;2023-03-13T10:47:53;93815.41;;;10.20;30.01
8294;BME280;4185;41.506;24.938;2023-03-13T10:50:24;93817.84;;;10.38;30.07
8294;BME280;4185;41.506;24.938;2023-03-13T10:52:52;93819.94;;;10.28;29.19
8294;BME280;4185;41.506;24.938;2023-03-13T10:55:21;93812.25;;;10.27;29.08
8294;BME280;4185;41.506;24.938;2023-03-13T10:57:56;93801.34;;;10.41;27.18
8294;BME280;4185;41.506;24.938;2023-03-13T11:00:30;93803.97;;;10.36;28.46
8294;BME280;4185;41.506;24.938;2023-03-13T11:02:58;93787.94;;;10.58;29.38
8294;BME280;4185;41.506;24.938;2023-03-13T11:05:32;93788.72;;;10.84;29.88
8294;BME280;4185;41.506;24.938;2023-03-13T11:08:20;93797.09;;;10.86;28.31
8294;BME280;4185;41.506;24.938;2023-03-13T11:10:56;93786.56;;;10.68;28.29
8294;BME280;4185;41.506;24.938;2023-03-13T11:13:29;93781.53;;;10.61;28.99
8294;BME280;4185;41.506;24.938;2023-03-13T11:15:58;93771.84;;;10.80;28.54
8294;BME280;4185;41.506;24.938;2023-03-13T11:18:31;93784.16;;;10.50;28.13
8294;BME280;4185;41.506;24.938;2023-03-13T11:21:04;93783.56;;;10.66;28.82
8294;BME280;4185;41.506;24.938;2023-03-13T11:23:34;93766.31;;;10.69;28.24
8294;BME280;4185;41.506;24.938;2023-03-13T11:26:09;93762.69;;;10.77;28.32
8294;BME280;4185;41.506;24.938;2023-03-13T11:28:46;93774.50;;;11.00;27.79
8294;BME280;4185;41.506;24.938;2023-03-13T11:31:20;93754.03;;;11.04;27.22
8294;BME280;4185;41.506;24.938;2023-03-13T11:33:54;93754.63;;;11.14;26.98
8294;BME280;4185;41.506;24.938;2023-03-13T11:36:32;93747.94;;;11.15;28.27
8294;BME280;4185;41.506;24.938;2023-03-13T11:39:08;93746.84;;;11.33;27.47
8294;BME280;4185;41.506;24.938;2023-03-13T11:41:46;93751.63;;;11.49;27.56
8294;BME280;4185;41.506;24.938;2023-03-13T11:44:30;93740.34;;;11.61;27.64
8294;BME280;4185;41.506;24.938;2023-03-13T11:47:13;93735.72;;;11.67;26.93
8294;BME280;4185;41.506;24.938;2023-03-13T11:49:59;93738.78;;;11.49;26.15
8294;BME280;4185;41.506;24.938;2023-03-13T11:52:56;93729.28;;;11.65;27.43
8294;BME280;4185;41.506;24.938;2023-03-13T11:55:31;93726.75;;;11.61;25.90
8294;BME280;4185;41.506;24.938;2023-03-13T11:58:17;93726.63;;;11.81;27.03
8294;BME280;4185;41.506;24.938;2023-03-13T12:00:50;93720.31;;;12.06;27.67
8294;BME280;4185;41.506;24.938;2023-03-13T12:03:23;93713.47;;;12.27;26.55
8294;BME280;4185;41.506;24.938;2023-03-13T12:05:58;93708.53;;;12.37;26.93
8294;BME280;4185;41.506;24.938;2023-03-13T12:08:30;93705.06;;;12.37;27.42
8294;BME280;4185;41.506;24.938;2023-03-13T12:11:08;93697.91;;;12.56;26.51
8294;BME280;4185;41.506;24.938;2023-03-13T12:13:39;93706.59;;;12.71;26.74
8294;BME280;4185;41.506;24.938;2023-03-13T12:16:11;93702.31;;;12.37;26.43
8294;BME280;4185;41.506;24.938;2023-03-13T12:18:42;93707.97;;;12.16;26.46
8294;BME280;4185;41.506;24.938;2023-03-13T12:21:15;93699.84;;;12.27;26.98
8294;BME280;4185;41.506;24.938;2023-03-13T12:23:50;93696.88;;;12.31;26.16
8294;BME280;4185;41.506;24.938;2023-03-13T12:26:26;93703.13;;;12.65;26.88
8294;BME280;4185;41.506;24.938;2023-03-13T12:29:05;93688.53;;;12.90;26.71
8294;BME280;4185;41.506;24.938;2023-03-13T12:31:37;93696.25;;;13.13;26.80
8294;BME280;4185;41.506;24.938;2023-03-13T12:34:11;93704.44;;;13.19;26.36
8294;BME280;4185;41.506;24.938;2023-03-13T12:36:44;93690.31;;;13.04;25.32
8294;BME280;4185;41.506;24.938;2023-03-13T12:39:21;93701.91;;;12.99;25.36
8294;BME280;4185;41.506;24.938;2023-03-13T12:42:02;93693.25;;;13.28;25.46
8294;BME280;4185;41.506;24.938;2023-03-13T12:44:33;93692.75;;;13.35;25.44
8294;BME280;4185;41.506;24.938;2023-03-13T12:47:07;93703.88;;;13.59;25.80
8294;BME280;4185;41.506;24.938;2023-03-13T12:50:02;93704.16;;;13.39;24.62
8294;BME280;4185;41.506;24.938;2023-03-13T12:53:03;93700.94;;;13.46;25.38
8294;BME280;4185;41.506;24.938;2023-03-13T12:55:54;93704.09;;;13.72;26.10
8294;BME280;4185;41.506;24.938;2023-03-13T12:58:40;93705.28;;;13.93;25.44
8294;BME280;4185;41.506;24.938;2023-03-13T13:01:14;93698.75;;;14.07;25.36
8294;BME280;4185;41.506;24.938;2023-03-13T13:03:49;93708.16;;;14.17;24.96
8294;BME280;4185;41.506;24.938;2023-03-13T13:06:17;93707.16;;;14.15;24.64
8294;BME280;4185;41.506;24.938;2023-03-13T13:08:47;93698.72;;;14.18;24.41
8294;BME280;4185;41.506;24.938;2023-03-13T13:17:53;93683.81;;;14.65;23.82
8294;BME280;4185;41.506;24.938;2023-03-13T13:20:38;93687.25;;;14.72;23.57
8294;BME280;4185;41.506;24.938;2023-03-13T13:23:28;93694.84;;;14.90;24.13
8294;BME280;4185;41.506;24.938;2023-03-13T13:32:30;93688.16;;;15.20;24.28
8294;BME280;4185;41.506;24.938;2023-03-13T13:35:02;93690.38;;;15.22;23.85
8294;BME280;4185;41.506;24.938;2023-03-13T13:37:31;93683.59;;;15.28;24.64
8294;BME280;4185;41.506;24.938;2023-03-13T13:40:19;93681.31;;;15.62;24.10
8294;BME280;4185;41.506;24.938;2023-03-13T13:42:52;93679.13;;;15.55;23.99
8294;BME280;4185;41.506;24.938;2023-03-13T13:45:29;93670.94;;;15.79;24.20
8294;BME280;4185;41.506;24.938;2023-03-13T13:48:23;93677.81;;;16.28;24.49